sensor_id;sensor_type;location;lat;lon;timestamp;P1;durP1;ratioP1;P2;durP2;ratioP2
78443;SDS011;67739;52.986;8.894;2023-04-06T00:03:10;7.03;;;2.95;;
78443;SDS011;67739;52.986;8.894;2023-04-06T00:08:01;6.85;;;2.30;;
78443;SDS011;67739;52.986;8.894;2023-04-06T00:12:52;8.07;;;2.75;;
78443;SDS011;67739;52.986;8.894;2023-04-06T00:15:18;9.35;;;3.78;;
78443;SDS011;67739;52.986;8.894;2023-04-06T00:20:10;5.68;;;1.77;;
78443;SDS011;67739;52.986;8.894;2023-04-06T00:22:35;7.82;;;2.53;;
78443;SDS011;67739;52.986;8.894;2023-04-06T00:25:01;5.65;;;2.30;;
78443;SDS011;67739;52.986;8.894;2023-04-06T00:27:26;6.88;;;2.33;;
78443;SDS011;67739;52.986;8.894;2023-04-06T00:32:17;5.80;;;2.10;;
78443;SDS011;67739;52.986;8.894;2023-04-06T00:34:42;7.15;;;2.33;;
78443;SDS011;67739;52.986;8.894;2023-04-06T00:37:08;7.88;;;3.20;;
78443;SDS011;67739;52.986;8.894;2023-04-06T00:39:33;8.18;;;3.10;;
78443;SDS011;67739;52.986;8.894;2023-04-06T00:41:59;7.63;;;2.63;;
78443;SDS011;67739;52.986;8.894;2023-04-06T00:44:25;7.63;;;3.05;;
78443;SDS011;67739;52.986;8.894;2023-04-06T00:46:51;6.95;;;2.65;;
78443;SDS011;67739;52.986;8.894;2023-04-06T00:49:17;6.90;;;3.30;;
78443;SDS011;67739;52.986;8.894;2023-04-06T00:51:42;12.10;;;4.15;;
78443;SDS011;67739;52.986;8.894;2023-04-06T00:54:08;9.13;;;3.83;;
78443;SDS011;67739;52.986;8.894;2023-04-06T00:56:34;8.98;;;3.50;;
78443;SDS011;67739;52.986;8.894;2023-04-06T00:59:00;9.15;;;4.40;;
78443;SDS011;67739;52.986;8.894;2023-04-06T01:01:26;7.07;;;2.75;;
78443;SDS011;67739;52.986;8.894;2023-04-06T01:06:16;7.60;;;2.63;;
78443;SDS011;67739;52.986;8.894;2023-04-06T01:11:07;7.00;;;2.72;;
78443;SDS011;67739;52.986;8.894;2023-04-06T01:13:33;8.00;;;2.83;;
78443;SDS011;67739;52.986;8.894;2023-04-06T01:15:58;9.90;;;4.07;;
78443;SDS011;67739;52.986;8.894;2023-04-06T01:20:53;8.85;;;3.45;;
78443;SDS011;67739;52.986;8.894;2023-04-06T01:23:18;10.23;;;4.22;;
78443;SDS011;67739;52.986;8.894;2023-04-06T01:25:44;9.52;;;4.05;;
78443;SDS011;67739;52.986;8.894;2023-04-06T01:28:09;8.90;;;4.40;;
78443;SDS011;67739;52.986;8.894;2023-04-06T01:30:35;7.82;;;3.72;;
78443;SDS011;67739;52.986;8.894;2023-04-06T01:33:00;8.52;;;3.78;;
78443;SDS011;67739;52.986;8.894;2023-04-06T01:35:26;9.85;;;3.50;;
78443;SDS011;67739;52.986;8.894;2023-04-06T01:37:52;8.70;;;4.05;;
78443;SDS011;67739;52.986;8.894;2023-04-06T01:40:18;8.85;;;3.65;;
78443;SDS011;67739;52.986;8.894;2023-04-06T01:42:43;7.20;;;2.92;;
78443;SDS011;67739;52.986;8.894;2023-04-06T01:45:09;7.57;;;3.50;;
78443;SDS011;67739;52.986;8.894;2023-04-06T01:47:35;9.38;;;3.80;;
78443;SDS011;67739;52.986;8.894;2023-04-06T01:50:00;9.32;;;4.20;;
78443;SDS011;67739;52.986;8.894;2023-04-06T01:52:28;8.23;;;3.55;;
78443;SDS011;67739;52.986;8.894;2023-04-06T01:54:54;8.02;;;3.42;;
78443;SDS011;67739;52.986;8.894;2023-04-06T01:57:19;10.40;;;4.88;;
78443;SDS011;67739;52.986;8.894;2023-04-06T01:59:45;8.95;;;3.47;;
78443;SDS011;67739;52.986;8.894;2023-04-06T02:02:10;9.38;;;3.42;;
78443;SDS011;67739;52.986;8.894;2023-04-06T02:04:37;6.82;;;2.45;;
78443;SDS011;67739;52.986;8.894;2023-04-06T02:07:03;6.80;;;2.75;;
78443;SDS011;67739;52.986;8.894;2023-04-06T02:11:54;6.95;;;2.10;;
78443;SDS011;67739;52.986;8.894;2023-04-06T02:14:20;7.10;;;2.88;;
78443;SDS011;67739;52.986;8.894;2023-04-06T02:16:46;10.07;;;3.60;;
78443;SDS011;67739;52.986;8.894;2023-04-06T02:19:11;8.15;;;3.92;;
78443;SDS011;67739;52.986;8.894;2023-04-06T02:21:37;7.70;;;3.65;;
78443;SDS011;67739;52.986;8.894;2023-04-06T02:24:02;8.32;;;3.53;;
78443;SDS011;67739;52.986;8.894;2023-04-06T02:28:53;8.25;;;3.15;;
78443;SDS011;67739;52.986;8.894;2023-04-06T02:31:18;7.50;;;3.20;;
78443;SDS011;67739;52.986;8.894;2023-04-06T02:33:44;7.72;;;3.38;;
78443;SDS011;67739;52.986;8.894;2023-04-06T02:36:09;7.97;;;3.17;;
78443;SDS011;67739;52.986;8.894;2023-04-06T02:38:35;8.30;;;3.28;;
78443;SDS011;67739;52.986;8.894;2023-04-06T02:41:00;7.75;;;3.92;;
78443;SDS011;67739;52.986;8.894;2023-04-06T02:43:26;7.65;;;3.40;;
78443;SDS011;67739;52.986;8.894;2023-04-06T02:45:51;8.43;;;3.92;;
78443;SDS011;67739;52.986;8.894;2023-04-06T02:48:16;7.88;;;3.97;;
78443;SDS011;67739;52.986;8.894;2023-04-06T02:50:42;7.60;;;3.47;;
78443;SDS011;67739;52.986;8.894;2023-04-06T02:53:07;7.40;;;3.47;;
78443;SDS011;67739;52.986;8.894;2023-04-06T02:55:33;10.73;;;4.10;;
78443;SDS011;67739;52.986;8.894;2023-04-06T02:57:58;10.20;;;4.22;;
78443;SDS011;67739;52.986;8.894;2023-04-06T03:00:23;10.02;;;4.00;;
78443;SDS011;67739;52.986;8.894;2023-04-06T03:02:49;11.80;;;4.55;;
78443;SDS011;67739;52.986;8.894;2023-04-06T03:05:15;9.18;;;4.07;;
78443;SDS011;67739;52.986;8.894;2023-04-06T03:07:40;7.40;;;3.67;;
78443;SDS011;67739;52.986;8.894;2023-04-06T03:10:06;8.07;;;3.92;;
78443;SDS011;67739;52.986;8.894;2023-04-06T03:12:31;7.85;;;3.60;;
78443;SDS011;67739;52.986;8.894;2023-04-06T03:14:57;9.05;;;4.45;;
78443;SDS011;67739;52.986;8.894;2023-04-06T03:17:22;8.55;;;3.75;;
78443;SDS011;67739;52.986;8.894;2023-04-06T03:19:47;9.13;;;3.80;;
78443;SDS011;67739;52.986;8.894;2023-04-06T03:22:13;9.38;;;4.25;;
78443;SDS011;67739;52.986;8.894;2023-04-06T03:24:38;9.02;;;4.35;;
78443;SDS011;67739;52.986;8.894;2023-04-06T03:27:04;9.95;;;4.70;;
78443;SDS011;67739;52.986;8.894;2023-04-06T03:29:29;8.60;;;4.32;;
78443;SDS011;67739;52.986;8.894;2023-04-06T03:31:55;10.20;;;4.18;;
78443;SDS011;67739;52.986;8.894;2023-04-06T03:34:20;9.18;;;3.92;;
78443;SDS011;67739;52.986;8.894;2023-04-06T03:36:45;10.48;;;4.38;;
78443;SDS011;67739;52.986;8.894;2023-04-06T03:39:11;10.43;;;3.72;;
78443;SDS011;67739;52.986;8.894;2023-04-06T03:41:37;8.25;;;4.00;;
78443;SDS011;67739;52.986;8.894;2023-04-06T03:44:02;10.07;;;3.47;;
78443;SDS011;67739;52.986;8.894;2023-04-06T03:46:27;11.05;;;5.15;;
78443;SDS011;67739;52.986;8.894;2023-04-06T03:48:53;11.30;;;5.47;;
78443;SDS011;67739;52.986;8.894;2023-04-06T03:51:18;13.65;;;5.82;;
78443;SDS011;67739;52.986;8.894;2023-04-06T03:53:44;11.68;;;5.22;;
78443;SDS011;67739;52.986;8.894;2023-04-06T03:56:09;11.15;;;5.00;;
78443;SDS011;67739;52.986;8.894;2023-04-06T03:58:35;9.48;;;4.43;;
78443;SDS011;67739;52.986;8.894;2023-04-06T04:01:00;10.80;;;4.75;;
78443;SDS011;67739;52.986;8.894;2023-04-06T04:03:25;9.77;;;4.07;;
78443;SDS011;67739;52.986;8.894;2023-04-06T04:05:52;10.45;;;4.07;;
78443;SDS011;67739;52.986;8.894;2023-04-06T04:08:20;8.80;;;4.25;;
78443;SDS011;67739;52.986;8.894;2023-04-06T04:10:45;10.23;;;5.13;;
78443;SDS011;67739;52.986;8.894;2023-04-06T04:13:10;11.85;;;4.28;;
78443;SDS011;67739;52.986;8.894;2023-04-06T04:15:36;8.75;;;3.67;;
78443;SDS011;67739;52.986;8.894;2023-04-06T04:18:01;9.57;;;3.90;;
78443;SDS011;67739;52.986;8.894;2023-04-06T04:20:27;8.57;;;3.38;;
78443;SDS011;67739;52.986;8.894;2023-04-06T04:22:53;7.22;;;3.45;;
78443;SDS011;67739;52.986;8.894;2023-04-06T04:25:19;8.77;;;3.80;;
78443;SDS011;67739;52.986;8.894;2023-04-06T04:27:44;7.88;;;3.72;;
78443;SDS011;67739;52.986;8.894;2023-04-06T04:30:09;9.43;;;4.40;;
78443;SDS011;67739;52.986;8.894;2023-04-06T04:32:35;8.48;;;4.47;;
78443;SDS011;67739;52.986;8.894;2023-04-06T04:35:01;7.75;;;3.63;;
78443;SDS011;67739;52.986;8.894;2023-04-06T04:37:26;9.60;;;4.28;;
78443;SDS011;67739;52.986;8.894;2023-04-06T04:39:51;11.80;;;5.13;;
78443;SDS011;67739;52.986;8.894;2023-04-06T04:42:17;12.75;;;5.28;;
78443;SDS011;67739;52.986;8.894;2023-04-06T04:44:42;12.75;;;6.20;;
78443;SDS011;67739;52.986;8.894;2023-04-06T04:47:07;12.13;;;5.78;;
78443;SDS011;67739;52.986;8.894;2023-04-06T04:49:33;12.50;;;6.40;;
78443;SDS011;67739;52.986;8.894;2023-04-06T04:51:58;13.25;;;7.78;;
78443;SDS011;67739;52.986;8.894;2023-04-06T04:54:24;13.10;;;5.65;;
78443;SDS011;67739;52.986;8.894;2023-04-06T04:56:49;11.98;;;5.50;;
78443;SDS011;67739;52.986;8.894;2023-04-06T04:59:15;13.02;;;7.18;;
78443;SDS011;67739;52.986;8.894;2023-04-06T05:01:41;14.30;;;6.65;;
78443;SDS011;67739;52.986;8.894;2023-04-06T05:04:06;13.57;;;6.53;;
78443;SDS011;67739;52.986;8.894;2023-04-06T05:06:32;13.73;;;6.50;;
78443;SDS011;67739;52.986;8.894;2023-04-06T05:08:57;18.02;;;7.22;;
78443;SDS011;67739;52.986;8.894;2023-04-06T05:11:22;13.18;;;6.18;;
78443;SDS011;67739;52.986;8.894;2023-04-06T05:13:48;17.83;;;7.43;;
78443;SDS011;67739;52.986;8.894;2023-04-06T05:16:13;15.15;;;7.85;;
78443;SDS011;67739;52.986;8.894;2023-04-06T05:18:39;14.15;;;7.25;;
78443;SDS011;67739;52.986;8.894;2023-04-06T05:21:04;14.30;;;7.57;;
78443;SDS011;67739;52.986;8.894;2023-04-06T05:23:30;14.93;;;7.45;;
78443;SDS011;67739;52.986;8.894;2023-04-06T05:25:55;15.52;;;7.55;;
78443;SDS011;67739;52.986;8.894;2023-04-06T05:28:21;15.15;;;8.25;;
78443;SDS011;67739;52.986;8.894;2023-04-06T05:30:47;15.63;;;7.82;;
78443;SDS011;67739;52.986;8.894;2023-04-06T05:33:12;19.15;;;8.73;;
78443;SDS011;67739;52.986;8.894;2023-04-06T05:35:38;17.67;;;8.18;;
78443;SDS011;67739;52.986;8.894;2023-04-06T05:38:05;14.20;;;8.05;;
78443;SDS011;67739;52.986;8.894;2023-04-06T05:40:33;14.13;;;6.90;;
78443;SDS011;67739;52.986;8.894;2023-04-06T05:42:58;13.88;;;6.65;;
78443;SDS011;67739;52.986;8.894;2023-04-06T05:47:49;14.05;;;7.85;;
78443;SDS011;67739;52.986;8.894;2023-04-06T05:50:14;16.05;;;7.63;;
78443;SDS011;67739;52.986;8.894;2023-04-06T05:55:08;14.25;;;5.95;;
78443;SDS011;67739;52.986;8.894;2023-04-06T05:59:59;13.73;;;6.25;;
78443;SDS011;67739;52.986;8.894;2023-04-06T06:02:24;15.38;;;8.00;;
78443;SDS011;67739;52.986;8.894;2023-04-06T06:04:50;14.85;;;8.52;;
78443;SDS011;67739;52.986;8.894;2023-04-06T06:09:41;13.48;;;6.72;;
78443;SDS011;67739;52.986;8.894;2023-04-06T06:14:32;13.27;;;6.40;;
78443;SDS011;67739;52.986;8.894;2023-04-06T06:19:23;12.25;;;5.78;;
78443;SDS011;67739;52.986;8.894;2023-04-06T06:24:13;11.70;;;6.78;;
78443;SDS011;67739;52.986;8.894;2023-04-06T06:29:04;14.32;;;7.47;;
78443;SDS011;67739;52.986;8.894;2023-04-06T06:31:31;12.57;;;6.90;;
78443;SDS011;67739;52.986;8.894;2023-04-06T06:36:22;11.80;;;5.88;;
78443;SDS011;67739;52.986;8.894;2023-04-06T06:38:47;14.93;;;7.25;;
78443;SDS011;67739;52.986;8.894;2023-04-06T06:43:38;14.63;;;7.97;;
78443;SDS011;67739;52.986;8.894;2023-04-06T06:48:29;12.82;;;7.18;;
78443;SDS011;67739;52.986;8.894;2023-04-06T06:53:21;12.80;;;7.13;;
78443;SDS011;67739;52.986;8.894;2023-04-06T06:58:13;14.90;;;6.85;;
78443;SDS011;67739;52.986;8.894;2023-04-06T07:00:39;17.88;;;7.65;;
78443;SDS011;67739;52.986;8.894;2023-04-06T07:05:30;14.23;;;7.68;;
78443;SDS011;67739;52.986;8.894;2023-04-06T07:07:55;12.70;;;6.75;;
78443;SDS011;67739;52.986;8.894;2023-04-06T07:10:21;12.00;;;7.60;;
78443;SDS011;67739;52.986;8.894;2023-04-06T07:12:47;13.23;;;8.20;;
78443;SDS011;67739;52.986;8.894;2023-04-06T07:17:37;14.65;;;7.65;;
78443;SDS011;67739;52.986;8.894;2023-04-06T07:20:03;15.70;;;7.60;;
78443;SDS011;67739;52.986;8.894;2023-04-06T07:22:29;11.30;;;6.70;;
78443;SDS011;67739;52.986;8.894;2023-04-06T07:24:54;14.07;;;8.20;;
78443;SDS011;67739;52.986;8.894;2023-04-06T07:27:19;11.77;;;6.47;;
78443;SDS011;67739;52.986;8.894;2023-04-06T07:29:45;13.10;;;7.70;;
78443;SDS011;67739;52.986;8.894;2023-04-06T07:32:11;18.05;;;7.78;;
78443;SDS011;67739;52.986;8.894;2023-04-06T07:34:36;11.63;;;6.63;;
78443;SDS011;67739;52.986;8.894;2023-04-06T07:37:01;12.45;;;7.50;;
78443;SDS011;67739;52.986;8.894;2023-04-06T07:39:28;12.13;;;7.05;;
78443;SDS011;67739;52.986;8.894;2023-04-06T07:41:53;12.85;;;6.38;;
78443;SDS011;67739;52.986;8.894;2023-04-06T07:44:19;12.38;;;7.68;;
78443;SDS011;67739;52.986;8.894;2023-04-06T07:46:44;11.98;;;7.28;;
78443;SDS011;67739;52.986;8.894;2023-04-06T07:49:10;12.90;;;7.03;;
78443;SDS011;67739;52.986;8.894;2023-04-06T07:51:36;13.23;;;6.57;;
78443;SDS011;67739;52.986;8.894;2023-04-06T07:54:02;11.77;;;7.05;;
78443;SDS011;67739;52.986;8.894;2023-04-06T07:56:28;11.82;;;6.22;;
78443;SDS011;67739;52.986;8.894;2023-04-06T07:58:53;11.85;;;6.85;;
78443;SDS011;67739;52.986;8.894;2023-04-06T08:01:21;11.40;;;6.43;;
78443;SDS011;67739;52.986;8.894;2023-04-06T08:03:46;10.95;;;5.68;;
78443;SDS011;67739;52.986;8.894;2023-04-06T08:06:12;12.38;;;6.97;;
78443;SDS011;67739;52.986;8.894;2023-04-06T08:08:37;11.88;;;6.40;;
78443;SDS011;67739;52.986;8.894;2023-04-06T08:11:03;11.27;;;6.80;;
78443;SDS011;67739;52.986;8.894;2023-04-06T08:13:28;11.52;;;6.32;;
78443;SDS011;67739;52.986;8.894;2023-04-06T08:15:53;13.65;;;7.10;;
78443;SDS011;67739;52.986;8.894;2023-04-06T08:18:19;13.00;;;6.10;;
78443;SDS011;67739;52.986;8.894;2023-04-06T08:20:45;12.90;;;7.38;;
78443;SDS011;67739;52.986;8.894;2023-04-06T08:23:10;10.98;;;6.65;;
78443;SDS011;67739;52.986;8.894;2023-04-06T08:25:36;12.18;;;6.07;;
78443;SDS011;67739;52.986;8.894;2023-04-06T08:28:02;12.55;;;6.53;;
78443;SDS011;67739;52.986;8.894;2023-04-06T08:30:28;12.10;;;7.07;;
78443;SDS011;67739;52.986;8.894;2023-04-06T08:32:54;11.88;;;6.95;;
78443;SDS011;67739;52.986;8.894;2023-04-06T08:35:20;14.50;;;8.45;;
78443;SDS011;67739;52.986;8.894;2023-04-06T08:37:45;14.98;;;6.97;;
78443;SDS011;67739;52.986;8.894;2023-04-06T08:40:11;11.20;;;6.75;;
78443;SDS011;67739;52.986;8.894;2023-04-06T08:42:44;11.63;;;6.40;;
78443;SDS011;67739;52.986;8.894;2023-04-06T08:45:14;11.18;;;6.53;;
78443;SDS011;67739;52.986;8.894;2023-04-06T08:47:41;11.77;;;7.28;;
78443;SDS011;67739;52.986;8.894;2023-04-06T08:50:07;11.50;;;6.40;;
78443;SDS011;67739;52.986;8.894;2023-04-06T08:52:33;11.27;;;7.20;;
78443;SDS011;67739;52.986;8.894;2023-04-06T08:54:59;13.38;;;6.72;;
78443;SDS011;67739;52.986;8.894;2023-04-06T08:57:25;11.80;;;6.47;;
78443;SDS011;67739;52.986;8.894;2023-04-06T08:59:51;10.57;;;6.07;;
78443;SDS011;67739;52.986;8.894;2023-04-06T09:02:18;12.95;;;7.03;;
78443;SDS011;67739;52.986;8.894;2023-04-06T09:04:47;10.05;;;5.25;;
78443;SDS011;67739;52.986;8.894;2023-04-06T09:07:15;10.95;;;6.55;;
78443;SDS011;67739;52.986;8.894;2023-04-06T09:09:41;10.40;;;6.28;;
78443;SDS011;67739;52.986;8.894;2023-04-06T09:12:21;10.60;;;6.20;;
78443;SDS011;67739;52.986;8.894;2023-04-06T09:14:54;15.75;;;8.25;;
78443;SDS011;67739;52.986;8.894;2023-04-06T09:17:28;10.05;;;5.88;;
78443;SDS011;67739;52.986;8.894;2023-04-06T09:19:57;12.13;;;7.55;;
78443;SDS011;67739;52.986;8.894;2023-04-06T09:22:23;11.70;;;5.93;;
78443;SDS011;67739;52.986;8.894;2023-04-06T09:24:51;12.38;;;7.38;;
78443;SDS011;67739;52.986;8.894;2023-04-06T09:27:17;10.55;;;6.22;;
78443;SDS011;67739;52.986;8.894;2023-04-06T09:29:43;11.70;;;6.15;;
78443;SDS011;67739;52.986;8.894;2023-04-06T09:32:09;10.35;;;6.32;;
78443;SDS011;67739;52.986;8.894;2023-04-06T09:34:39;10.95;;;5.88;;
78443;SDS011;67739;52.986;8.894;2023-04-06T09:37:17;11.60;;;6.95;;
78443;SDS011;67739;52.986;8.894;2023-04-06T09:39:43;12.93;;;6.18;;
78443;SDS011;67739;52.986;8.894;2023-04-06T09:42:10;13.48;;;6.38;;
78443;SDS011;67739;52.986;8.894;2023-04-06T09:44:37;15.52;;;7.55;;
78443;SDS011;67739;52.986;8.894;2023-04-06T09:47:03;11.15;;;6.78;;
78443;SDS011;67739;52.986;8.894;2023-04-06T09:49:32;12.65;;;6.40;;
78443;SDS011;67739;52.986;8.894;2023-04-06T09:51:59;11.55;;;6.90;;
78443;SDS011;67739;52.986;8.894;2023-04-06T09:54:28;12.15;;;8.15;;
78443;SDS011;67739;52.986;8.894;2023-04-06T09:59:43;13.20;;;7.03;;
78443;SDS011;67739;52.986;8.894;2023-04-06T10:02:18;10.68;;;6.53;;
78443;SDS011;67739;52.986;8.894;2023-04-06T10:04:59;13.45;;;6.78;;
78443;SDS011;67739;52.986;8.894;2023-04-06T10:07:33;11.65;;;6.50;;
78443;SDS011;67739;52.986;8.894;2023-04-06T10:09:59;11.13;;;7.32;;
78443;SDS011;67739;52.986;8.894;2023-04-06T10:12:27;10.93;;;6.45;;
78443;SDS011;67739;52.986;8.894;2023-04-06T10:14:52;13.88;;;7.60;;
78443;SDS011;67739;52.986;8.894;2023-04-06T10:17:18;11.70;;;7.30;;
78443;SDS011;67739;52.986;8.894;2023-04-06T10:19:49;11.63;;;7.22;;
78443;SDS011;67739;52.986;8.894;2023-04-06T10:22:26;12.38;;;7.40;;
78443;SDS011;67739;52.986;8.894;2023-04-06T10:25:25;11.95;;;6.63;;
78443;SDS011;67739;52.986;8.894;2023-04-06T10:27:58;12.15;;;7.38;;
78443;SDS011;67739;52.986;8.894;2023-04-06T10:30:30;14.50;;;7.63;;
78443;SDS011;67739;52.986;8.894;2023-04-06T10:32:56;12.52;;;7.50;;
78443;SDS011;67739;52.986;8.894;2023-04-06T10:35:21;12.77;;;7.85;;
78443;SDS011;67739;52.986;8.894;2023-04-06T10:37:51;13.90;;;7.82;;
78443;SDS011;67739;52.986;8.894;2023-04-06T10:40:18;14.35;;;8.18;;
78443;SDS011;67739;52.986;8.894;2023-04-06T10:42:51;13.23;;;7.40;;
78443;SDS011;67739;52.986;8.894;2023-04-06T10:45:24;11.07;;;7.68;;
78443;SDS011;67739;52.986;8.894;2023-04-06T10:47:54;12.73;;;7.88;;
78443;SDS011;67739;52.986;8.894;2023-04-06T10:50:21;12.07;;;7.72;;
78443;SDS011;67739;52.986;8.894;2023-04-06T10:52:47;12.10;;;7.13;;
78443;SDS011;67739;52.986;8.894;2023-04-06T10:55:24;15.52;;;8.98;;
78443;SDS011;67739;52.986;8.894;2023-04-06T10:57:51;11.57;;;7.35;;
78443;SDS011;67739;52.986;8.894;2023-04-06T11:00:17;12.35;;;7.47;;
78443;SDS011;67739;52.986;8.894;2023-04-06T11:02:44;13.35;;;7.38;;
78443;SDS011;67739;52.986;8.894;2023-04-06T11:05:11;11.57;;;6.40;;
78443;SDS011;67739;52.986;8.894;2023-04-06T11:07:38;13.00;;;7.82;;
78443;SDS011;67739;52.986;8.894;2023-04-06T11:10:05;12.80;;;7.50;;
78443;SDS011;67739;52.986;8.894;2023-04-06T11:12:31;12.02;;;6.93;;
78443;SDS011;67739;52.986;8.894;2023-04-06T11:17:31;11.70;;;7.32;;
78443;SDS011;67739;52.986;8.894;2023-04-06T11:20:01;12.57;;;6.82;;
78443;SDS011;67739;52.986;8.894;2023-04-06T11:22:29;12.80;;;7.43;;
78443;SDS011;67739;52.986;8.894;2023-04-06T11:25:05;12.75;;;7.72;;
78443;SDS011;67739;52.986;8.894;2023-04-06T11:27:31;11.75;;;6.53;;
78443;SDS011;67739;52.986;8.894;2023-04-06T11:30:01;13.10;;;7.22;;
78443;SDS011;67739;52.986;8.894;2023-04-06T11:32:27;11.75;;;7.82;;
78443;SDS011;67739;52.986;8.894;2023-04-06T11:34:53;11.65;;;6.53;;
78443;SDS011;67739;52.986;8.894;2023-04-06T11:37:18;13.77;;;6.60;;
78443;SDS011;67739;52.986;8.894;2023-04-06T11:39:48;13.82;;;7.55;;
78443;SDS011;67739;52.986;8.894;2023-04-06T11:42:25;11.90;;;7.07;;
78443;SDS011;67739;52.986;8.894;2023-04-06T11:44:55;13.88;;;7.30;;
78443;SDS011;67739;52.986;8.894;2023-04-06T11:52:58;14.15;;;7.88;;
78443;SDS011;67739;52.986;8.894;2023-04-06T11:55:25;12.07;;;7.00;;
78443;SDS011;67739;52.986;8.894;2023-04-06T11:57:51;12.98;;;6.72;;
78443;SDS011;67739;52.986;8.894;2023-04-06T12:00:17;13.30;;;7.40;;
78443;SDS011;67739;52.986;8.894;2023-04-06T12:02:46;14.23;;;7.85;;
78443;SDS011;67739;52.986;8.894;2023-04-06T12:05:12;12.18;;;7.10;;
78443;SDS011;67739;52.986;8.894;2023-04-06T12:07:38;13.68;;;7.75;;
78443;SDS011;67739;52.986;8.894;2023-04-06T12:10:03;11.85;;;7.07;;
78443;SDS011;67739;52.986;8.894;2023-04-06T12:12:29;14.95;;;8.80;;
78443;SDS011;67739;52.986;8.894;2023-04-06T12:14:55;12.98;;;8.70;;
78443;SDS011;67739;52.986;8.894;2023-04-06T12:17:21;14.75;;;9.82;;
78443;SDS011;67739;52.986;8.894;2023-04-06T12:19:46;12.05;;;7.22;;
78443;SDS011;67739;52.986;8.894;2023-04-06T12:22:12;14.05;;;7.30;;
78443;SDS011;67739;52.986;8.894;2023-04-06T12:24:38;13.45;;;7.03;;
78443;SDS011;67739;52.986;8.894;2023-04-06T12:27:03;13.85;;;7.45;;
78443;SDS011;67739;52.986;8.894;2023-04-06T12:29:28;13.52;;;7.82;;
78443;SDS011;67739;52.986;8.894;2023-04-06T12:31:54;12.23;;;6.75;;
78443;SDS011;67739;52.986;8.894;2023-04-06T12:34:20;15.63;;;7.93;;
78443;SDS011;67739;52.986;8.894;2023-04-06T12:36:45;11.95;;;5.82;;
78443;SDS011;67739;52.986;8.894;2023-04-06T12:39:10;13.57;;;7.15;;
78443;SDS011;67739;52.986;8.894;2023-04-06T12:41:36;12.88;;;8.07;;
78443;SDS011;67739;52.986;8.894;2023-04-06T12:44:02;14.63;;;7.43;;
78443;SDS011;67739;52.986;8.894;2023-04-06T12:46:28;13.50;;;7.85;;
78443;SDS011;67739;52.986;8.894;2023-04-06T12:48:57;12.68;;;7.40;;
78443;SDS011;67739;52.986;8.894;2023-04-06T12:51:24;16.05;;;7.53;;
78443;SDS011;67739;52.986;8.894;2023-04-06T12:53:52;13.75;;;7.40;;
78443;SDS011;67739;52.986;8.894;2023-04-06T12:56:18;12.73;;;6.85;;
78443;SDS011;67739;52.986;8.894;2023-04-06T12:58:44;13.82;;;7.78;;
78443;SDS011;67739;52.986;8.894;2023-04-06T13:01:10;12.77;;;7.18;;
78443;SDS011;67739;52.986;8.894;2023-04-06T13:03:39;14.00;;;6.85;;
78443;SDS011;67739;52.986;8.894;2023-04-06T13:06:07;12.30;;;7.53;;
78443;SDS011;67739;52.986;8.894;2023-04-06T13:08:33;16.85;;;8.15;;
78443;SDS011;67739;52.986;8.894;2023-04-06T13:11:00;14.13;;;8.25;;
78443;SDS011;67739;52.986;8.894;2023-04-06T13:13:26;14.15;;;8.05;;
78443;SDS011;67739;52.986;8.894;2023-04-06T13:15:54;13.23;;;8.38;;
78443;SDS011;67739;52.986;8.894;2023-04-06T13:18:20;12.43;;;7.43;;
78443;SDS011;67739;52.986;8.894;2023-04-06T13:20:47;13.00;;;6.85;;
78443;SDS011;67739;52.986;8.894;2023-04-06T13:23:13;12.02;;;8.23;;
78443;SDS011;67739;52.986;8.894;2023-04-06T13:25:39;12.75;;;8.10;;
78443;SDS011;67739;52.986;8.894;2023-04-06T13:28:04;12.82;;;7.72;;
78443;SDS011;67739;52.986;8.894;2023-04-06T13:30:29;13.57;;;8.52;;
78443;SDS011;67739;52.986;8.894;2023-04-06T13:32:55;15.65;;;7.82;;
78443;SDS011;67739;52.986;8.894;2023-04-06T13:35:20;14.13;;;7.70;;
78443;SDS011;67739;52.986;8.894;2023-04-06T13:37:46;14.23;;;8.32;;
78443;SDS011;67739;52.986;8.894;2023-04-06T13:40:11;13.98;;;7.70;;
78443;SDS011;67739;52.986;8.894;2023-04-06T13:42:37;13.60;;;7.88;;
78443;SDS011;67739;52.986;8.894;2023-04-06T13:45:06;14.27;;;7.70;;
78443;SDS011;67739;52.986;8.894;2023-04-06T13:47:32;11.73;;;6.18;;
78443;SDS011;67739;52.986;8.894;2023-04-06T13:49:58;14.80;;;8.70;;
78443;SDS011;67739;52.986;8.894;2023-04-06T13:52:23;15.13;;;6.90;;
78443;SDS011;67739;52.986;8.894;2023-04-06T13:54:49;13.07;;;7.22;;
78443;SDS011;67739;52.986;8.894;2023-04-06T13:57:15;14.32;;;7.78;;
78443;SDS011;67739;52.986;8.894;2023-04-06T13:59:41;15.93;;;8.07;;
78443;SDS011;67739;52.986;8.894;2023-04-06T14:02:07;12.98;;;7.35;;
78443;SDS011;67739;52.986;8.894;2023-04-06T14:04:33;14.65;;;7.57;;
78443;SDS011;67739;52.986;8.894;2023-04-06T14:06:59;14.30;;;7.45;;
78443;SDS011;67739;52.986;8.894;2023-04-06T14:09:26;17.85;;;7.85;;
78443;SDS011;67739;52.986;8.894;2023-04-06T14:11:52;13.48;;;7.43;;
78443;SDS011;67739;52.986;8.894;2023-04-06T14:14:17;14.85;;;7.82;;
78443;SDS011;67739;52.986;8.894;2023-04-06T14:16:43;12.95;;;7.10;;
78443;SDS011;67739;52.986;8.894;2023-04-06T14:19:12;12.93;;;7.50;;
78443;SDS011;67739;52.986;8.894;2023-04-06T14:21:39;12.55;;;8.07;;
78443;SDS011;67739;52.986;8.894;2023-04-06T14:24:05;12.70;;;6.78;;
78443;SDS011;67739;52.986;8.894;2023-04-06T14:26:32;14.02;;;7.68;;
78443;SDS011;67739;52.986;8.894;2023-04-06T14:28:58;12.25;;;7.38;;
78443;SDS011;67739;52.986;8.894;2023-04-06T14:31:24;15.10;;;7.75;;
78443;SDS011;67739;52.986;8.894;2023-04-06T14:33:50;11.88;;;7.35;;
78443;SDS011;67739;52.986;8.894;2023-04-06T14:36:16;13.15;;;7.70;;
78443;SDS011;67739;52.986;8.894;2023-04-06T14:38:41;12.52;;;7.43;;
78443;SDS011;67739;52.986;8.894;2023-04-06T14:41:08;15.32;;;8.80;;
78443;SDS011;67739;52.986;8.894;2023-04-06T14:43:43;15.02;;;8.50;;
78443;SDS011;67739;52.986;8.894;2023-04-06T14:46:08;15.88;;;8.23;;
78443;SDS011;67739;52.986;8.894;2023-04-06T14:48:34;13.48;;;8.07;;
78443;SDS011;67739;52.986;8.894;2023-04-06T14:51:00;14.15;;;7.85;;
78443;SDS011;67739;52.986;8.894;2023-04-06T14:53:25;14.63;;;8.10;;
78443;SDS011;67739;52.986;8.894;2023-04-06T14:55:51;12.85;;;7.95;;
78443;SDS011;67739;52.986;8.894;2023-04-06T14:58:20;14.88;;;9.45;;
78443;SDS011;67739;52.986;8.894;2023-04-06T15:00:46;13.23;;;8.23;;
78443;SDS011;67739;52.986;8.894;2023-04-06T15:03:12;12.77;;;8.02;;
78443;SDS011;67739;52.986;8.894;2023-04-06T15:05:37;12.75;;;7.63;;
78443;SDS011;67739;52.986;8.894;2023-04-06T15:08:03;15.45;;;8.68;;
78443;SDS011;67739;52.986;8.894;2023-04-06T15:10:30;14.57;;;8.10;;
78443;SDS011;67739;52.986;8.894;2023-04-06T15:12:57;13.98;;;8.23;;
78443;SDS011;67739;52.986;8.894;2023-04-06T15:15:22;13.65;;;7.80;;
78443;SDS011;67739;52.986;8.894;2023-04-06T15:17:47;13.98;;;8.70;;
78443;SDS011;67739;52.986;8.894;2023-04-06T15:20:13;13.35;;;7.80;;
78443;SDS011;67739;52.986;8.894;2023-04-06T15:22:38;13.48;;;8.20;;
78443;SDS011;67739;52.986;8.894;2023-04-06T15:25:03;13.18;;;7.65;;
78443;SDS011;67739;52.986;8.894;2023-04-06T15:27:29;15.95;;;7.63;;
78443;SDS011;67739;52.986;8.894;2023-04-06T15:29:55;13.25;;;7.80;;
78443;SDS011;67739;52.986;8.894;2023-04-06T15:32:20;14.65;;;7.97;;
78443;SDS011;67739;52.986;8.894;2023-04-06T15:34:46;12.90;;;7.18;;
78443;SDS011;67739;52.986;8.894;2023-04-06T15:37:12;12.20;;;6.53;;
78443;SDS011;67739;52.986;8.894;2023-04-06T15:39:37;13.68;;;7.28;;
78443;SDS011;67739;52.986;8.894;2023-04-06T15:42:03;12.68;;;7.88;;
78443;SDS011;67739;52.986;8.894;2023-04-06T15:44:28;15.10;;;9.32;;